sensor_id;sensor_type;location;lat;lon;timestamp;P1;durP1;ratioP1;P2;durP2;ratioP2
6442;SDS011;3254;47.372;8.512;2023-04-24T00:00:56;2.50;;;0.60;;
6442;SDS011;3254;47.372;8.512;2023-04-24T00:03:23;0.70;;;0.63;;
6442;SDS011;3254;47.372;8.512;2023-04-24T00:05:49;0.77;;;0.67;;
6442;SDS011;3254;47.372;8.512;2023-04-24T00:08:16;0.80;;;0.63;;
6442;SDS011;3254;47.372;8.512;2023-04-24T00:10:41;4.97;;;0.70;;
6442;SDS011;3254;47.372;8.512;2023-04-24T00:13:07;0.80;;;0.60;;
6442;SDS011;3254;47.372;8.512;2023-04-24T00:15:33;1.40;;;0.60;;
6442;SDS011;3254;47.372;8.512;2023-04-24T00:17:58;0.80;;;0.50;;
6442;SDS011;3254;47.372;8.512;2023-04-24T00:20:26;0.60;;;0.40;;
6442;SDS011;3254;47.372;8.512;2023-04-24T00:22:53;0.60;;;0.47;;
6442;SDS011;3254;47.372;8.512;2023-04-24T00:25:18;0.60;;;0.40;;
6442;SDS011;3254;47.372;8.512;2023-04-24T00:27:44;0.70;;;0.60;;
6442;SDS011;3254;47.372;8.512;2023-04-24T00:30:10;1.13;;;0.53;;
6442;SDS011;3254;47.372;8.512;2023-04-24T00:32:35;0.83;;;0.50;;
6442;SDS011;3254;47.372;8.512;2023-04-24T00:35:01;3.60;;;0.40;;
6442;SDS011;3254;47.372;8.512;2023-04-24T00:37:26;1.17;;;0.50;;
6442;SDS011;3254;47.372;8.512;2023-04-24T00:39:52;0.60;;;0.30;;
6442;SDS011;3254;47.372;8.512;2023-04-24T00:42:17;1.63;;;0.40;;
6442;SDS011;3254;47.372;8.512;2023-04-24T00:44:43;0.80;;;0.40;;
6442;SDS011;3254;47.372;8.512;2023-04-24T00:47:09;0.80;;;0.53;;
6442;SDS011;3254;47.372;8.512;2023-04-24T00:49:36;2.50;;;0.30;;
6442;SDS011;3254;47.372;8.512;2023-04-24T00:52:02;0.60;;;0.40;;
6442;SDS011;3254;47.372;8.512;2023-04-24T00:54:32;0.60;;;0.40;;
6442;SDS011;3254;47.372;8.512;2023-04-24T00:56:58;4.00;;;0.40;;
6442;SDS011;3254;47.372;8.512;2023-04-24T00:59:23;0.60;;;0.30;;
6442;SDS011;3254;47.372;8.512;2023-04-24T01:01:49;0.60;;;0.40;;
6442;SDS011;3254;47.372;8.512;2023-04-24T01:04:14;0.60;;;0.30;;
6442;SDS011;3254;47.372;8.512;2023-04-24T01:06:43;0.60;;;0.33;;
6442;SDS011;3254;47.372;8.512;2023-04-24T01:09:10;0.60;;;0.30;;
6442;SDS011;3254;47.372;8.512;2023-04-24T01:11:37;0.60;;;0.33;;
6442;SDS011;3254;47.372;8.512;2023-04-24T01:14:03;0.60;;;0.40;;
6442;SDS011;3254;47.372;8.512;2023-04-24T01:16:29;1.70;;;0.40;;
6442;SDS011;3254;47.372;8.512;2023-04-24T01:18:54;0.80;;;0.30;;
6442;SDS011;3254;47.372;8.512;2023-04-24T01:21:20;0.73;;;0.30;;
6442;SDS011;3254;47.372;8.512;2023-04-24T01:23:46;0.70;;;0.70;;
6442;SDS011;3254;47.372;8.512;2023-04-24T01:26:13;0.93;;;0.50;;
6442;SDS011;3254;47.372;8.512;2023-04-24T01:28:40;0.50;;;0.30;;
6442;SDS011;3254;47.372;8.512;2023-04-24T01:31:06;0.60;;;0.30;;
6442;SDS011;3254;47.372;8.512;2023-04-24T01:33:32;2.30;;;0.40;;
6442;SDS011;3254;47.372;8.512;2023-04-24T01:35:57;0.60;;;0.30;;
6442;SDS011;3254;47.372;8.512;2023-04-24T01:38:23;0.60;;;0.30;;
6442;SDS011;3254;47.372;8.512;2023-04-24T01:40:49;0.60;;;0.30;;
6442;SDS011;3254;47.372;8.512;2023-04-24T01:43:16;0.70;;;0.40;;
6442;SDS011;3254;47.372;8.512;2023-04-24T01:45:41;0.70;;;0.43;;
6442;SDS011;3254;47.372;8.512;2023-04-24T01:48:07;1.13;;;0.30;;
6442;SDS011;3254;47.372;8.512;2023-04-24T01:50:33;0.70;;;0.30;;
6442;SDS011;3254;47.372;8.512;2023-04-24T01:52:58;0.90;;;0.40;;
6442;SDS011;3254;47.372;8.512;2023-04-24T01:55:24;0.70;;;0.40;;
6442;SDS011;3254;47.372;8.512;2023-04-24T01:57:50;0.60;;;0.30;;
6442;SDS011;3254;47.372;8.512;2023-04-24T02:00:17;1.20;;;0.40;;
6442;SDS011;3254;47.372;8.512;2023-04-24T02:02:43;0.60;;;0.30;;
6442;SDS011;3254;47.372;8.512;2023-04-24T02:05:09;0.70;;;0.40;;
6442;SDS011;3254;47.372;8.512;2023-04-24T02:07:34;0.60;;;0.30;;
6442;SDS011;3254;47.372;8.512;2023-04-24T02:10:00;0.60;;;0.33;;
6442;SDS011;3254;47.372;8.512;2023-04-24T02:12:26;0.60;;;0.40;;
6442;SDS011;3254;47.372;8.512;2023-04-24T02:14:51;0.57;;;0.30;;
6442;SDS011;3254;47.372;8.512;2023-04-24T02:17:17;0.60;;;0.37;;
6442;SDS011;3254;47.372;8.512;2023-04-24T02:19:43;0.60;;;0.30;;
6442;SDS011;3254;47.372;8.512;2023-04-24T02:22:09;0.60;;;0.30;;
6442;SDS011;3254;47.372;8.512;2023-04-24T02:24:35;0.60;;;0.30;;
6442;SDS011;3254;47.372;8.512;2023-04-24T02:27:02;0.60;;;0.30;;
6442;SDS011;3254;47.372;8.512;2023-04-24T02:29:27;0.60;;;0.30;;
6442;SDS011;3254;47.372;8.512;2023-04-24T02:31:53;1.10;;;0.30;;
6442;SDS011;3254;47.372;8.512;2023-04-24T02:34:19;0.60;;;0.30;;
6442;SDS011;3254;47.372;8.512;2023-04-24T02:36:44;0.70;;;0.40;;
6442;SDS011;3254;47.372;8.512;2023-04-24T02:39:10;0.80;;;0.40;;
6442;SDS011;3254;47.372;8.512;2023-04-24T02:41:35;0.50;;;0.30;;
6442;SDS011;3254;47.372;8.512;2023-04-24T02:44:01;0.50;;;0.30;;
6442;SDS011;3254;47.372;8.512;2023-04-24T02:46:27;0.50;;;0.30;;
6442;SDS011;3254;47.372;8.512;2023-04-24T02:48:53;0.60;;;0.30;;
6442;SDS011;3254;47.372;8.512;2023-04-24T02:51:18;0.60;;;0.30;;
6442;SDS011;3254;47.372;8.512;2023-04-24T02:53:44;0.70;;;0.30;;
6442;SDS011;3254;47.372;8.512;2023-04-24T02:56:09;0.60;;;0.30;;
6442;SDS011;3254;47.372;8.512;2023-04-24T02:58:37;0.57;;;0.30;;
6442;SDS011;3254;47.372;8.512;2023-04-24T03:01:02;0.60;;;0.40;;
6442;SDS011;3254;47.372;8.512;2023-04-24T03:03:28;0.60;;;0.30;;
6442;SDS011;3254;47.372;8.512;2023-04-24T03:05:54;0.53;;;0.30;;
6442;SDS011;3254;47.372;8.512;2023-04-24T03:08:20;0.60;;;0.30;;
6442;SDS011;3254;47.372;8.512;2023-04-24T03:10:46;0.53;;;0.30;;
6442;SDS011;3254;47.372;8.512;2023-04-24T03:13:12;0.60;;;0.30;;
6442;SDS011;3254;47.372;8.512;2023-04-24T03:15:38;1.37;;;0.37;;
6442;SDS011;3254;47.372;8.512;2023-04-24T03:18:03;1.07;;;0.30;;
6442;SDS011;3254;47.372;8.512;2023-04-24T03:20:29;0.80;;;0.30;;
6442;SDS011;3254;47.372;8.512;2023-04-24T03:22:55;0.60;;;0.40;;
6442;SDS011;3254;47.372;8.512;2023-04-24T03:25:22;0.50;;;0.30;;
6442;SDS011;3254;47.372;8.512;2023-04-24T03:27:47;0.50;;;0.30;;
6442;SDS011;3254;47.372;8.512;2023-04-24T03:30:13;0.60;;;0.30;;
6442;SDS011;3254;47.372;8.512;2023-04-24T03:32:38;0.60;;;0.30;;
6442;SDS011;3254;47.372;8.512;2023-04-24T03:35:04;0.60;;;0.30;;
6442;SDS011;3254;47.372;8.512;2023-04-24T03:37:32;0.50;;;0.30;;
6442;SDS011;3254;47.372;8.512;2023-04-24T03:39:58;0.50;;;0.30;;
6442;SDS011;3254;47.372;8.512;2023-04-24T03:42:23;0.60;;;0.30;;
6442;SDS011;3254;47.372;8.512;2023-04-24T03:44:49;0.70;;;0.50;;
6442;SDS011;3254;47.372;8.512;2023-04-24T03:47:14;0.50;;;0.30;;
6442;SDS011;3254;47.372;8.512;2023-04-24T03:49:40;0.70;;;0.30;;
6442;SDS011;3254;47.372;8.512;2023-04-24T03:52:05;0.60;;;0.40;;
6442;SDS011;3254;47.372;8.512;2023-04-24T03:54:31;0.50;;;0.30;;
6442;SDS011;3254;47.372;8.512;2023-04-24T03:56:56;0.60;;;0.30;;
6442;SDS011;3254;47.372;8.512;2023-04-24T03:59:22;0.57;;;0.30;;
6442;SDS011;3254;47.372;8.512;2023-04-24T04:01:48;0.50;;;0.30;;
6442;SDS011;3254;47.372;8.512;2023-04-24T04:04:13;0.57;;;0.37;;
6442;SDS011;3254;47.372;8.512;2023-04-24T04:06:39;1.43;;;0.37;;
6442;SDS011;3254;47.372;8.512;2023-04-24T04:09:05;0.60;;;0.30;;
6442;SDS011;3254;47.372;8.512;2023-04-24T04:11:30;2.10;;;0.40;;
6442;SDS011;3254;47.372;8.512;2023-04-24T04:13:56;0.60;;;0.40;;
6442;SDS011;3254;47.372;8.512;2023-04-24T04:16:21;0.53;;;0.30;;
6442;SDS011;3254;47.372;8.512;2023-04-24T04:18:47;0.70;;;0.40;;
6442;SDS011;3254;47.372;8.512;2023-04-24T04:21:13;0.60;;;0.30;;
6442;SDS011;3254;47.372;8.512;2023-04-24T04:23:39;0.60;;;0.37;;
6442;SDS011;3254;47.372;8.512;2023-04-24T04:26:05;0.60;;;0.30;;
6442;SDS011;3254;47.372;8.512;2023-04-24T04:28:30;0.60;;;0.30;;
6442;SDS011;3254;47.372;8.512;2023-04-24T04:30:56;0.70;;;0.30;;
6442;SDS011;3254;47.372;8.512;2023-04-24T04:33:22;0.60;;;0.30;;
6442;SDS011;3254;47.372;8.512;2023-04-24T04:35:51;1.37;;;0.40;;
6442;SDS011;3254;47.372;8.512;2023-04-24T04:38:20;0.70;;;0.40;;
6442;SDS011;3254;47.372;8.512;2023-04-24T04:40:46;0.50;;;0.30;;
6442;SDS011;3254;47.372;8.512;2023-04-24T04:43:11;0.60;;;0.40;;
6442;SDS011;3254;47.372;8.512;2023-04-24T04:45:38;0.57;;;0.30;;
6442;SDS011;3254;47.372;8.512;2023-04-24T04:48:05;0.60;;;0.50;;
6442;SDS011;3254;47.372;8.512;2023-04-24T04:50:32;0.60;;;0.30;;
6442;SDS011;3254;47.372;8.512;2023-04-24T04:52:58;1.00;;;0.40;;
6442;SDS011;3254;47.372;8.512;2023-04-24T04:55:24;0.60;;;0.40;;
6442;SDS011;3254;47.372;8.512;2023-04-24T04:57:50;1.27;;;0.40;;
6442;SDS011;3254;47.372;8.512;2023-04-24T05:00:16;2.90;;;0.60;;
6442;SDS011;3254;47.372;8.512;2023-04-24T05:02:42;0.80;;;0.40;;
6442;SDS011;3254;47.372;8.512;2023-04-24T05:05:08;0.60;;;0.40;;
6442;SDS011;3254;47.372;8.512;2023-04-24T05:07:33;0.60;;;0.30;;
6442;SDS011;3254;47.372;8.512;2023-04-24T05:09:59;1.43;;;0.40;;
6442;SDS011;3254;47.372;8.512;2023-04-24T05:12:25;0.60;;;0.40;;
6442;SDS011;3254;47.372;8.512;2023-04-24T05:14:50;2.20;;;0.60;;
6442;SDS011;3254;47.372;8.512;2023-04-24T05:17:16;1.10;;;0.50;;
6442;SDS011;3254;47.372;8.512;2023-04-24T05:19:43;2.17;;;0.40;;
6442;SDS011;3254;47.372;8.512;2023-04-24T05:22:08;0.80;;;0.50;;
6442;SDS011;3254;47.372;8.512;2023-04-24T05:24:34;1.90;;;0.53;;
6442;SDS011;3254;47.372;8.512;2023-04-24T05:27:01;0.70;;;0.50;;
6442;SDS011;3254;47.372;8.512;2023-04-24T05:29:29;0.73;;;0.67;;
6442;SDS011;3254;47.372;8.512;2023-04-24T05:31:56;2.07;;;0.63;;
6442;SDS011;3254;47.372;8.512;2023-04-24T05:34:22;2.13;;;1.07;;
6442;SDS011;3254;47.372;8.512;2023-04-24T05:36:47;4.57;;;0.97;;
6442;SDS011;3254;47.372;8.512;2023-04-24T05:39:13;2.10;;;0.60;;
6442;SDS011;3254;47.372;8.512;2023-04-24T05:41:40;0.97;;;0.87;;
6442;SDS011;3254;47.372;8.512;2023-04-24T05:44:05;1.17;;;0.80;;
6442;SDS011;3254;47.372;8.512;2023-04-24T05:46:31;2.40;;;1.10;;
6442;SDS011;3254;47.372;8.512;2023-04-24T05:48:56;2.73;;;1.13;;
6442;SDS011;3254;47.372;8.512;2023-04-24T05:51:23;2.97;;;1.20;;
6442;SDS011;3254;47.372;8.512;2023-04-24T05:53:48;1.20;;;1.10;;
6442;SDS011;3254;47.372;8.512;2023-04-24T05:56:14;0.90;;;0.90;;
6442;SDS011;3254;47.372;8.512;2023-04-24T05:58:41;0.80;;;0.80;;
6442;SDS011;3254;47.372;8.512;2023-04-24T06:01:06;1.10;;;0.80;;
6442;SDS011;3254;47.372;8.512;2023-04-24T06:03:32;1.07;;;1.07;;
6442;SDS011;3254;47.372;8.512;2023-04-24T06:05:58;1.20;;;0.70;;
6442;SDS011;3254;47.372;8.512;2023-04-24T06:08:23;1.13;;;0.53;;
6442;SDS011;3254;47.372;8.512;2023-04-24T06:10:49;0.63;;;0.50;;
6442;SDS011;3254;47.372;8.512;2023-04-24T06:13:15;1.27;;;0.60;;
6442;SDS011;3254;47.372;8.512;2023-04-24T06:15:41;0.80;;;0.80;;
6442;SDS011;3254;47.372;8.512;2023-04-24T06:18:06;0.70;;;0.63;;
6442;SDS011;3254;47.372;8.512;2023-04-24T06:20:32;0.67;;;0.57;;
6442;SDS011;3254;47.372;8.512;2023-04-24T06:22:58;0.90;;;0.60;;
6442;SDS011;3254;47.372;8.512;2023-04-24T06:25:25;0.80;;;0.60;;
6442;SDS011;3254;47.372;8.512;2023-04-24T06:27:51;0.90;;;0.60;;
6442;SDS011;3254;47.372;8.512;2023-04-24T06:30:17;3.40;;;0.87;;
6442;SDS011;3254;47.372;8.512;2023-04-24T06:32:42;1.27;;;0.60;;
6442;SDS011;3254;47.372;8.512;2023-04-24T06:35:08;0.67;;;0.53;;
6442;SDS011;3254;47.372;8.512;2023-04-24T06:37:34;1.00;;;0.67;;
6442;SDS011;3254;47.372;8.512;2023-04-24T06:40:00;0.80;;;0.70;;
6442;SDS011;3254;47.372;8.512;2023-04-24T06:42:26;0.70;;;0.50;;
6442;SDS011;3254;47.372;8.512;2023-04-24T06:44:51;1.10;;;0.60;;
6442;SDS011;3254;47.372;8.512;2023-04-24T06:47:17;1.10;;;1.00;;
6442;SDS011;3254;47.372;8.512;2023-04-24T06:49:43;0.70;;;0.60;;
6442;SDS011;3254;47.372;8.512;2023-04-24T06:52:09;0.90;;;0.90;;
6442;SDS011;3254;47.372;8.512;2023-04-24T06:54:34;1.30;;;0.63;;
6442;SDS011;3254;47.372;8.512;2023-04-24T06:57:00;0.80;;;0.73;;
6442;SDS011;3254;47.372;8.512;2023-04-24T06:59:26;1.57;;;0.73;;
6442;SDS011;3254;47.372;8.512;2023-04-24T07:01:52;0.97;;;0.87;;
6442;SDS011;3254;47.372;8.512;2023-04-24T07:04:17;0.60;;;0.60;;
6442;SDS011;3254;47.372;8.512;2023-04-24T07:06:46;0.90;;;0.90;;
6442;SDS011;3254;47.372;8.512;2023-04-24T07:09:12;1.87;;;0.90;;
6442;SDS011;3254;47.372;8.512;2023-04-24T07:11:43;1.60;;;1.00;;
6442;SDS011;3254;47.372;8.512;2023-04-24T07:14:09;2.00;;;0.90;;
6442;SDS011;3254;47.372;8.512;2023-04-24T07:16:35;2.97;;;1.60;;
6442;SDS011;3254;47.372;8.512;2023-04-24T07:19:00;2.60;;;1.10;;
6442;SDS011;3254;47.372;8.512;2023-04-24T07:21:26;1.20;;;0.90;;
6442;SDS011;3254;47.372;8.512;2023-04-24T07:23:52;1.43;;;1.33;;
6442;SDS011;3254;47.372;8.512;2023-04-24T07:26:17;1.70;;;1.07;;
6442;SDS011;3254;47.372;8.512;2023-04-24T07:28:43;0.83;;;0.70;;
6442;SDS011;3254;47.372;8.512;2023-04-24T07:31:10;2.83;;;1.20;;
6442;SDS011;3254;47.372;8.512;2023-04-24T07:33:36;1.40;;;0.90;;
6442;SDS011;3254;47.372;8.512;2023-04-24T07:36:02;1.13;;;1.03;;
6442;SDS011;3254;47.372;8.512;2023-04-24T07:38:29;0.83;;;0.77;;
6442;SDS011;3254;47.372;8.512;2023-04-24T07:40:55;1.43;;;0.80;;
6442;SDS011;3254;47.372;8.512;2023-04-24T07:43:21;1.00;;;0.90;;
6442;SDS011;3254;47.372;8.512;2023-04-24T07:45:47;3.43;;;1.10;;
6442;SDS011;3254;47.372;8.512;2023-04-24T07:48:12;3.27;;;1.17;;
6442;SDS011;3254;47.372;8.512;2023-04-24T07:50:41;1.53;;;1.20;;
6442;SDS011;3254;47.372;8.512;2023-04-24T07:53:07;0.80;;;0.70;;
6442;SDS011;3254;47.372;8.512;2023-04-24T07:55:32;0.90;;;0.90;;
6442;SDS011;3254;47.372;8.512;2023-04-24T07:57:58;8.50;;;1.30;;
6442;SDS011;3254;47.372;8.512;2023-04-24T08:00:23;2.27;;;1.03;;
6442;SDS011;3254;47.372;8.512;2023-04-24T08:02:49;2.23;;;1.43;;
6442;SDS011;3254;47.372;8.512;2023-04-24T08:05:15;3.10;;;1.57;;
6442;SDS011;3254;47.372;8.512;2023-04-24T08:07:40;2.97;;;1.80;;
6442;SDS011;3254;47.372;8.512;2023-04-24T08:10:07;2.00;;;1.90;;
6442;SDS011;3254;47.372;8.512;2023-04-24T08:12:35;3.27;;;1.53;;
6442;SDS011;3254;47.372;8.512;2023-04-24T08:15:01;1.97;;;1.87;;
6442;SDS011;3254;47.372;8.512;2023-04-24T08:17:26;1.93;;;1.83;;
6442;SDS011;3254;47.372;8.512;2023-04-24T08:19:52;1.90;;;1.80;;
6442;SDS011;3254;47.372;8.512;2023-04-24T08:22:24;3.33;;;2.10;;
6442;SDS011;3254;47.372;8.512;2023-04-24T08:24:49;11.37;;;2.50;;
6442;SDS011;3254;47.372;8.512;2023-04-24T08:27:15;2.70;;;2.03;;
6442;SDS011;3254;47.372;8.512;2023-04-24T08:29:41;2.30;;;2.17;;
6442;SDS011;3254;47.372;8.512;2023-04-24T08:32:06;2.47;;;2.27;;
6442;SDS011;3254;47.372;8.512;2023-04-24T08:34:32;2.47;;;2.30;;
6442;SDS011;3254;47.372;8.512;2023-04-24T08:36:57;3.30;;;2.20;;
6442;SDS011;3254;47.372;8.512;2023-04-24T08:39:23;10.33;;;2.90;;
6442;SDS011;3254;47.372;8.512;2023-04-24T08:41:48;3.40;;;2.83;;
6442;SDS011;3254;47.372;8.512;2023-04-24T08:44:15;2.87;;;2.67;;
6442;SDS011;3254;47.372;8.512;2023-04-24T08:46:42;3.67;;;2.97;;
6442;SDS011;3254;47.372;8.512;2023-04-24T08:49:10;4.40;;;2.83;;
6442;SDS011;3254;47.372;8.512;2023-04-24T08:51:38;3.10;;;2.97;;
6442;SDS011;3254;47.372;8.512;2023-04-24T08:54:04;4.50;;;2.93;;
6442;SDS011;3254;47.372;8.512;2023-04-24T08:56:32;3.80;;;2.77;;
6442;SDS011;3254;47.372;8.512;2023-04-24T08:58:59;4.57;;;2.40;;
6442;SDS011;3254;47.372;8.512;2023-04-24T09:01:24;19.20;;;3.63;;
6442;SDS011;3254;47.372;8.512;2023-04-24T09:03:51;8.57;;;3.50;;
6442;SDS011;3254;47.372;8.512;2023-04-24T09:06:19;3.33;;;2.60;;
6442;SDS011;3254;47.372;8.512;2023-04-24T09:08:48;6.70;;;3.10;;
6442;SDS011;3254;47.372;8.512;2023-04-24T09:11:16;13.57;;;3.67;;
6442;SDS011;3254;47.372;8.512;2023-04-24T09:13:41;4.23;;;3.00;;
6442;SDS011;3254;47.372;8.512;2023-04-24T09:16:08;5.83;;;1.80;;
6442;SDS011;3254;47.372;8.512;2023-04-24T09:18:34;2.00;;;1.83;;
6442;SDS011;3254;47.372;8.512;2023-04-24T09:21:19;2.13;;;2.00;;
6442;SDS011;3254;47.372;8.512;2023-04-24T09:23:46;3.07;;;2.13;;
6442;SDS011;3254;47.372;8.512;2023-04-24T09:26:22;2.30;;;2.10;;
6442;SDS011;3254;47.372;8.512;2023-04-24T09:28:47;3.93;;;2.20;;
6442;SDS011;3254;47.372;8.512;2023-04-24T09:31:14;4.60;;;2.63;;
6442;SDS011;3254;47.372;8.512;2023-04-24T09:36:28;2.73;;;2.20;;
6442;SDS011;3254;47.372;8.512;2023-04-24T09:38:58;3.00;;;2.70;;
6442;SDS011;3254;47.372;8.512;2023-04-24T09:41:25;2.23;;;2.00;;
6442;SDS011;3254;47.372;8.512;2023-04-24T09:43:53;5.20;;;2.20;;
6442;SDS011;3254;47.372;8.512;2023-04-24T09:46:19;1.90;;;1.70;;
6442;SDS011;3254;47.372;8.512;2023-04-24T09:48:46;4.40;;;2.13;;
6442;SDS011;3254;47.372;8.512;2023-04-24T09:51:12;2.00;;;1.90;;
6442;SDS011;3254;47.372;8.512;2023-04-24T09:53:38;1.70;;;1.60;;
6442;SDS011;3254;47.372;8.512;2023-04-24T09:56:10;1.70;;;1.60;;
6442;SDS011;3254;47.372;8.512;2023-04-24T09:58:37;2.70;;;1.90;;
6442;SDS011;3254;47.372;8.512;2023-04-24T10:01:03;2.97;;;2.10;;
6442;SDS011;3254;47.372;8.512;2023-04-24T10:03:29;2.03;;;1.67;;
6442;SDS011;3254;47.372;8.512;2023-04-24T10:05:58;4.20;;;1.80;;
6442;SDS011;3254;47.372;8.512;2023-04-24T10:08:25;3.57;;;2.13;;
6442;SDS011;3254;47.372;8.512;2023-04-24T10:10:51;2.17;;;1.57;;
6442;SDS011;3254;47.372;8.512;2023-04-24T10:13:17;2.70;;;1.80;;
6442;SDS011;3254;47.372;8.512;2023-04-24T10:15:43;2.90;;;2.20;;
6442;SDS011;3254;47.372;8.512;2023-04-24T10:18:10;3.63;;;1.90;;
6442;SDS011;3254;47.372;8.512;2023-04-24T10:20:36;2.60;;;1.40;;
6442;SDS011;3254;47.372;8.512;2023-04-24T10:23:03;5.47;;;1.70;;
6442;SDS011;3254;47.372;8.512;2023-04-24T10:25:30;5.17;;;1.73;;
6442;SDS011;3254;47.372;8.512;2023-04-24T10:27:58;2.57;;;1.93;;
6442;SDS011;3254;47.372;8.512;2023-04-24T10:30:25;4.00;;;1.53;;
6442;SDS011;3254;47.372;8.512;2023-04-24T10:32:52;1.93;;;1.43;;
6442;SDS011;3254;47.372;8.512;2023-04-24T10:35:18;2.73;;;1.90;;
6442;SDS011;3254;47.372;8.512;2023-04-24T10:37:48;1.67;;;1.57;;
6442;SDS011;3254;47.372;8.512;2023-04-24T10:40:17;3.77;;;1.87;;
6442;SDS011;3254;47.372;8.512;2023-04-24T10:42:46;4.60;;;2.30;;
6442;SDS011;3254;47.372;8.512;2023-04-24T10:45:20;3.83;;;1.40;;
6442;SDS011;3254;47.372;8.512;2023-04-24T10:47:51;5.63;;;2.00;;
6442;SDS011;3254;47.372;8.512;2023-04-24T10:50:25;6.00;;;1.73;;
6442;SDS011;3254;47.372;8.512;2023-04-24T10:52:52;4.60;;;2.17;;
6442;SDS011;3254;47.372;8.512;2023-04-24T10:58:07;2.47;;;1.80;;
6442;SDS011;3254;47.372;8.512;2023-04-24T11:00:33;3.30;;;1.53;;
6442;SDS011;3254;47.372;8.512;2023-04-24T11:03:04;3.80;;;1.70;;
6442;SDS011;3254;47.372;8.512;2023-04-24T11:05:49;2.73;;;2.10;;
6442;SDS011;3254;47.372;8.512;2023-04-24T11:11:08;2.70;;;1.57;;
6442;SDS011;3254;47.372;8.512;2023-04-24T11:16:29;4.13;;;1.90;;
6442;SDS011;3254;47.372;8.512;2023-04-24T11:26:57;3.17;;;2.10;;
6442;SDS011;3254;47.372;8.512;2023-04-24T11:32:19;5.67;;;1.73;;
6442;SDS011;3254;47.372;8.512;2023-04-24T11:37:21;2.37;;;2.17;;
6442;SDS011;3254;47.372;8.512;2023-04-24T11:39:50;3.60;;;1.90;;
6442;SDS011;3254;47.372;8.512;2023-04-24T11:42:16;4.60;;;1.90;;
6442;SDS011;3254;47.372;8.512;2023-04-24T11:44:43;2.27;;;1.70;;
6442;SDS011;3254;47.372;8.512;2023-04-24T11:47:08;2.20;;;1.73;;
6442;SDS011;3254;47.372;8.512;2023-04-24T11:49:37;2.90;;;2.10;;
6442;SDS011;3254;47.372;8.512;2023-04-24T11:52:03;2.80;;;1.80;;
6442;SDS011;3254;47.372;8.512;2023-04-24T11:54:30;5.40;;;1.83;;
6442;SDS011;3254;47.372;8.512;2023-04-24T11:56:55;2.33;;;2.17;;
6442;SDS011;3254;47.372;8.512;2023-04-24T11:59:22;7.13;;;1.90;;
6442;SDS011;3254;47.372;8.512;2023-04-24T12:01:48;1.50;;;1.40;;
6442;SDS011;3254;47.372;8.512;2023-04-24T12:04:15;2.47;;;2.10;;
6442;SDS011;3254;47.372;8.512;2023-04-24T12:06:58;2.10;;;1.87;;
6442;SDS011;3254;47.372;8.512;2023-04-24T12:09:25;1.90;;;1.70;;
6442;SDS011;3254;47.372;8.512;2023-04-24T12:11:54;2.37;;;2.17;;
6442;SDS011;3254;47.372;8.512;2023-04-24T12:14:22;4.03;;;1.87;;
6442;SDS011;3254;47.372;8.512;2023-04-24T12:16:49;4.20;;;2.10;;
6442;SDS011;3254;47.372;8.512;2023-04-24T12:19:21;4.50;;;2.30;;
6442;SDS011;3254;47.372;8.512;2023-04-24T12:22:01;2.33;;;2.13;;
6442;SDS011;3254;47.372;8.512;2023-04-24T12:24:28;4.13;;;1.70;;
6442;SDS011;3254;47.372;8.512;2023-04-24T12:26:55;3.90;;;1.53;;
6442;SDS011;3254;47.372;8.512;2023-04-24T12:29:21;2.60;;;1.50;;
6442;SDS011;3254;47.372;8.512;2023-04-24T12:31:47;3.10;;;2.33;;
6442;SDS011;3254;47.372;8.512;2023-04-24T12:34:31;3.23;;;2.07;;
6442;SDS011;3254;47.372;8.512;2023-04-24T12:37:08;3.00;;;2.30;;
6442;SDS011;3254;47.372;8.512;2023-04-24T12:39:35;2.00;;;1.90;;
6442;SDS011;3254;47.372;8.512;2023-04-24T12:42:00;5.43;;;1.90;;
6442;SDS011;3254;47.372;8.512;2023-04-24T12:44:30;1.50;;;1.40;;
6442;SDS011;3254;47.372;8.512;2023-04-24T12:46:59;3.03;;;1.10;;
6442;SDS011;3254;47.372;8.512;2023-04-24T12:49:25;1.90;;;1.60;;
6442;SDS011;3254;47.372;8.512;2023-04-24T12:51:52;4.63;;;2.20;;
6442;SDS011;3254;47.372;8.512;2023-04-24T12:54:17;1.53;;;1.37;;
6442;SDS011;3254;47.372;8.512;2023-04-24T12:56:43;4.50;;;1.20;;
6442;SDS011;3254;47.372;8.512;2023-04-24T12:59:09;3.10;;;1.50;;
6442;SDS011;3254;47.372;8.512;2023-04-24T13:01:34;2.40;;;1.63;;
6442;SDS011;3254;47.372;8.512;2023-04-24T13:04:00;3.97;;;1.90;;
6442;SDS011;3254;47.372;8.512;2023-04-24T13:06:26;3.60;;;1.17;;
6442;SDS011;3254;47.372;8.512;2023-04-24T13:08:51;3.83;;;1.53;;
6442;SDS011;3254;47.372;8.512;2023-04-24T13:11:17;2.50;;;1.73;;
6442;SDS011;3254;47.372;8.512;2023-04-24T13:13:43;3.67;;;1.50;;
6442;SDS011;3254;47.372;8.512;2023-04-24T13:16:08;3.20;;;1.73;;
6442;SDS011;3254;47.372;8.512;2023-04-24T13:18:34;3.43;;;1.70;;
6442;SDS011;3254;47.372;8.512;2023-04-24T13:21:00;2.10;;;1.83;;
6442;SDS011;3254;47.372;8.512;2023-04-24T13:23:25;4.50;;;1.40;;
6442;SDS011;3254;47.372;8.512;2023-04-24T13:25:51;1.90;;;1.80;;
6442;SDS011;3254;47.372;8.512;2023-04-24T13:28:17;1.60;;;1.50;;
6442;SDS011;3254;47.372;8.512;2023-04-24T13:30:42;1.70;;;1.60;;
6442;SDS011;3254;47.372;8.512;2023-04-24T13:33:08;3.67;;;1.77;;
6442;SDS011;3254;47.372;8.512;2023-04-24T13:35:34;1.70;;;1.60;;
6442;SDS011;3254;47.372;8.512;2023-04-24T13:37:59;1.53;;;1.30;;
6442;SDS011;3254;47.372;8.512;2023-04-24T13:40:26;2.63;;;1.70;;
6442;SDS011;3254;47.372;8.512;2023-04-24T13:42:52;2.20;;;1.70;;
6442;SDS011;3254;47.372;8.512;2023-04-24T13:45:17;4.30;;;2.00;;
6442;SDS011;3254;47.372;8.512;2023-04-24T13:47:43;21.47;;;1.93;;
6442;SDS011;3254;47.372;8.512;2023-04-24T13:50:09;2.30;;;2.00;;
6442;SDS011;3254;47.372;8.512;2023-04-24T13:52:35;6.43;;;2.13;;
6442;SDS011;3254;47.372;8.512;2023-04-24T13:55:00;2.20;;;2.10;;
6442;SDS011;3254;47.372;8.512;2023-04-24T13:57:26;4.30;;;2.40;;
6442;SDS011;3254;47.372;8.512;2023-04-24T13:59:53;4.30;;;2.23;;
6442;SDS011;3254;47.372;8.512;2023-04-24T14:02:20;4.47;;;2.40;;
6442;SDS011;3254;47.372;8.512;2023-04-24T14:04:46;2.50;;;1.97;;
6442;SDS011;3254;47.372;8.512;2023-04-24T14:07:13;2.87;;;1.93;;
6442;SDS011;3254;47.372;8.512;2023-04-24T14:09:38;2.23;;;2.10;;
6442;SDS011;3254;47.372;8.512;2023-04-24T14:12:04;3.47;;;2.43;;
6442;SDS011;3254;47.372;8.512;2023-04-24T14:14:30;6.60;;;2.60;;
6442;SDS011;3254;47.372;8.512;2023-04-24T14:16:56;3.40;;;2.77;;
6442;SDS011;3254;47.372;8.512;2023-04-24T14:19:22;3.00;;;2.80;;
6442;SDS011;3254;47.372;8.512;2023-04-24T14:21:47;4.50;;;2.83;;
6442;SDS011;3254;47.372;8.512;2023-04-24T14:24:13;8.23;;;3.37;;
6442;SDS011;3254;47.372;8.512;2023-04-24T14:26:38;3.17;;;2.87;;
6442;SDS011;3254;47.372;8.512;2023-04-24T14:29:04;3.33;;;3.03;;
6442;SDS011;3254;47.372;8.512;2023-04-24T14:31:30;3.77;;;2.90;;
6442;SDS011;3254;47.372;8.512;2023-04-24T14:33:55;2.80;;;2.60;;
6442;SDS011;3254;47.372;8.512;2023-04-24T14:36:21;3.27;;;2.77;;
6442;SDS011;3254;47.372;8.512;2023-04-24T14:38:46;2.43;;;2.33;;
6442;SDS011;3254;47.372;8.512;2023-04-24T14:41:12;2.50;;;2.30;;
6442;SDS011;3254;47.372;8.512;2023-04-24T14:43:38;3.40;;;2.13;;
6442;SDS011;3254;47.372;8.512;2023-04-24T14:46:04;2.20;;;2.10;;
6442;SDS011;3254;47.372;8.512;2023-04-24T14:48:30;5.10;;;2.33;;
6442;SDS011;3254;47.372;8.512;2023-04-24T14:50:55;3.40;;;1.93;;
6442;SDS011;3254;47.372;8.512;2023-04-24T14:53:21;3.90;;;1.93;;
6442;SDS011;3254;47.372;8.512;2023-04-24T14:55:46;1.90;;;1.80;;
6442;SDS011;3254;47.372;8.512;2023-04-24T14:58:12;1.90;;;1.80;;
6442;SDS011;3254;47.372;8.512;2023-04-24T15:00:37;2.37;;;1.97;;
6442;SDS011;3254;47.372;8.512;2023-04-24T15:03:03;1.93;;;1.83;;
6442;SDS011;3254;47.372;8.512;2023-04-24T15:05:29;4.30;;;1.90;;
6442;SDS011;3254;47.372;8.512;2023-04-24T15:07:55;1.90;;;1.80;;
6442;SDS011;3254;47.372;8.512;2023-04-24T15:10:21;1.60;;;1.50;;
6442;SDS011;3254;47.372;8.512;2023-04-24T15:12:48;2.60;;;1.60;;
6442;SDS011;3254;47.372;8.512;2023-04-24T15:15:13;3.23;;;1.73;;
6442;SDS011;3254;47.372;8.512;2023-04-24T15:17:39;1.93;;;1.40;;
6442;SDS011;3254;47.372;8.512;2023-04-24T15:20:05;4.23;;;2.00;;
6442;SDS011;3254;47.372;8.512;2023-04-24T15:22:31;1.93;;;1.83;;
6442;SDS011;3254;47.372;8.512;2023-04-24T15:24:57;3.20;;;1.93;;
6442;SDS011;3254;47.372;8.512;2023-04-24T15:27:23;1.77;;;1.57;;
6442;SDS011;3254;47.372;8.512;2023-04-24T15:29:49;1.57;;;1.47;;
6442;SDS011;3254;47.372;8.512;2023-04-24T15:32:14;2.07;;;1.87;;
6442;SDS011;3254;47.372;8.512;2023-04-24T15:34:40;3.57;;;1.90;;